createdAt,value
2023-01-13T00:00:38.379Z,4.37
2023-01-13T00:03:24.764Z,4.90
2023-01-13T00:05:53.159Z,4.53
2023-01-13T00:08:23.270Z,4.50
2023-01-13T00:10:51.692Z,4.47
2023-01-13T00:13:26.533Z,3.80
2023-01-13T00:15:58.735Z,4.13
2023-01-13T00:18:27.878Z,5.07
2023-01-13T00:21:02.828Z,3.60
2023-01-13T00:23:34.951Z,4.43
2023-01-13T00:26:06.465Z,4.30
2023-01-13T00:28:35.901Z,7.17
2023-01-13T00:31:08.518Z,6.23
2023-01-13T00:33:37.665Z,4.50
2023-01-13T00:36:08.160Z,3.50
2023-01-13T00:38:39.099Z,4.53
2023-01-13T00:41:10.200Z,4.03
2023-01-13T00:43:38.573Z,3.90
2023-01-13T00:46:08.452Z,3.43
2023-01-13T00:48:37.879Z,2.87
2023-01-13T00:51:08.639Z,3.43
2023-01-13T00:53:40.387Z,4.03
2023-01-13T00:56:14.293Z,3.23
2023-01-13T00:58:43.791Z,3.67
2023-01-13T01:01:14.023Z,4.00
2023-01-13T01:03:43.046Z,3.43
2023-01-13T01:06:15.509Z,5.47
2023-01-13T01:08:46.581Z,2.87
2023-01-13T01:11:17.265Z,3.50
2023-01-13T01:13:46.462Z,3.63
2023-01-13T01:16:17.547Z,3.77
2023-01-13T01:18:48.455Z,3.37
2023-01-13T01:21:17.988Z,3.87
2023-01-13T01:23:48.206Z,2.67
2023-01-13T01:26:17.865Z,3.53
2023-01-13T01:28:47.376Z,3.60
2023-01-13T01:31:18.775Z,2.80
2023-01-13T01:33:47.993Z,3.23
2023-01-13T01:36:18.645Z,3.77
2023-01-13T01:38:50.271Z,3.30
2023-01-13T01:41:35.339Z,3.30
2023-01-13T01:44:10.460Z,2.80
2023-01-13T01:46:40.726Z,3.77
2023-01-13T01:49:19.209Z,3.20
2023-01-13T01:51:50.201Z,3.47
2023-01-13T01:54:25.193Z,2.67
2023-01-13T01:56:53.914Z,3.13
2023-01-13T01:59:22.808Z,3.30
2023-01-13T02:01:51.384Z,3.13
2023-01-13T02:04:24.853Z,3.30
2023-01-13T02:06:54.676Z,4.27
2023-01-13T02:09:27.090Z,3.23
2023-01-13T02:12:13.232Z,3.43
2023-01-13T02:14:43.275Z,2.93
2023-01-13T02:17:27.225Z,3.67
2023-01-13T02:20:25.999Z,2.90
2023-01-13T02:23:42.609Z,3.60
2023-01-13T02:26:31.459Z,2.80
2023-01-13T02:29:30.745Z,3.00
2023-01-13T02:32:06.865Z,3.17
2023-01-13T02:34:41.101Z,3.60
2023-01-13T02:37:18.507Z,2.87
2023-01-13T02:39:56.625Z,3.13
2023-01-13T02:43:00.761Z,2.67
2023-01-13T02:45:34.894Z,3.10
2023-01-13T02:48:07.928Z,3.20
2023-01-13T02:50:40.398Z,3.20
2023-01-13T02:53:13.980Z,3.73
2023-01-13T02:55:47.980Z,3.40
2023-01-13T02:58:20.845Z,3.20
2023-01-13T03:00:50.419Z,3.40
2023-01-13T03:03:21.075Z,3.53
2023-01-13T03:05:51.505Z,3.23
2023-01-13T03:08:39.582Z,3.27
2023-01-13T03:11:09.864Z,2.90
2023-01-13T03:13:57.033Z,3.30
2023-01-13T03:16:33.308Z,3.17
2023-01-13T03:19:23.696Z,2.97
2023-01-13T03:21:56.787Z,3.17
2023-01-13T03:24:31.582Z,3.37
2023-01-13T03:27:05.460Z,3.00
2023-01-13T03:29:38.004Z,2.63
2023-01-13T03:32:11.401Z,3.37
2023-01-13T03:34:46.948Z,2.90
2023-01-13T03:37:19.060Z,3.00
2023-01-13T03:39:52.394Z,3.33
2023-01-13T03:42:24.331Z,3.03
2023-01-13T03:44:57.848Z,3.83
2023-01-13T03:47:32.082Z,3.10
2023-01-13T03:50:05.648Z,2.57
2023-01-13T03:52:37.964Z,4.13
2023-01-13T03:55:10.343Z,3.27
2023-01-13T03:57:44.008Z,2.67
2023-01-13T04:00:15.549Z,3.80
2023-01-13T04:02:51.542Z,2.83
2023-01-13T04:05:22.960Z,3.40
2023-01-13T04:07:57.383Z,2.90
2023-01-13T04:10:31.077Z,2.37
2023-01-13T04:13:05.237Z,4.00
2023-01-13T04:15:38.444Z,2.50
2023-01-13T04:18:15.801Z,2.90
2023-01-13T04:20:47.377Z,2.87
2023-01-13T04:23:16.813Z,2.83
2023-01-13T04:25:46.655Z,3.60
2023-01-13T04:28:15.545Z,3.10
2023-01-13T04:30:45.290Z,2.80
2023-01-13T04:33:15.028Z,2.87
2023-01-13T04:35:47.200Z,3.43
2023-01-13T04:38:17.508Z,2.73
2023-01-13T04:40:46.822Z,3.17
2023-01-13T04:43:15.820Z,2.67
2023-01-13T04:45:44.746Z,2.83
2023-01-13T04:48:13.408Z,4.00
2023-01-13T04:50:42.431Z,2.30
2023-01-13T04:53:12.328Z,3.30
2023-01-13T04:55:41.089Z,3.03
2023-01-13T04:58:11.084Z,2.50
2023-01-13T05:00:39.942Z,3.23
2023-01-13T05:03:08.558Z,3.33
2023-01-13T05:05:37.966Z,2.87
2023-01-13T05:08:07.044Z,3.17
2023-01-13T05:10:37.703Z,3.23
2023-01-13T05:13:23.576Z,2.93
2023-01-13T05:16:11.340Z,3.80
2023-01-13T05:18:39.915Z,2.93
2023-01-13T05:21:28.673Z,3.40
2023-01-13T05:24:14.440Z,2.83
2023-01-13T05:26:44.508Z,4.00
2023-01-13T05:29:14.261Z,2.90
2023-01-13T05:31:43.161Z,3.13
2023-01-13T05:34:11.514Z,4.27
2023-01-13T05:36:40.465Z,3.27
2023-01-13T05:39:08.829Z,3.10
2023-01-13T05:41:55.001Z,3.67
2023-01-13T05:44:24.740Z,3.37
2023-01-13T05:46:53.468Z,4.17
2023-01-13T05:49:22.005Z,3.90
2023-01-13T05:51:51.043Z,3.90
2023-01-13T05:54:19.565Z,4.30
2023-01-13T05:56:48.378Z,4.30
2023-01-13T05:59:16.731Z,3.63
2023-01-13T06:01:46.810Z,4.57
2023-01-13T06:04:15.260Z,3.70
2023-01-13T06:06:44.768Z,4.57
2023-01-13T06:09:13.281Z,4.83
2023-01-13T06:11:41.988Z,3.73
2023-01-13T06:14:10.505Z,4.50
2023-01-13T06:16:39.227Z,3.90
2023-01-13T06:19:12.950Z,3.97
2023-01-13T06:21:42.197Z,4.07
2023-01-13T06:24:10.590Z,5.07
2023-01-13T06:26:41.429Z,3.80
2023-01-13T06:29:14.028Z,4.07
2023-01-13T06:31:42.846Z,4.17
2023-01-13T06:34:15.447Z,4.33
2023-01-13T06:36:49.065Z,4.53
2023-01-13T06:39:21.237Z,4.77
2023-01-13T06:42:10.538Z,4.13
2023-01-13T06:44:39.043Z,4.27
2023-01-13T06:47:08.354Z,4.17
2023-01-13T06:49:38.205Z,4.03
2023-01-13T06:52:07.450Z,4.87
2023-01-13T06:54:35.837Z,4.10
2023-01-13T06:57:05.643Z,4.17
2023-01-13T06:59:35.270Z,5.20
2023-01-13T07:02:04.480Z,3.70
2023-01-13T07:04:33.128Z,3.60
2023-01-13T07:07:03.192Z,4.93
2023-01-13T07:09:31.667Z,3.77
2023-01-13T07:12:00.524Z,4.63
2023-01-13T07:14:46.400Z,4.33
2023-01-13T07:17:15.234Z,3.93
2023-01-13T07:19:43.645Z,4.97
2023-01-13T07:22:16.327Z,4.50
2023-01-13T07:24:44.796Z,4.57
2023-01-13T07:27:13.482Z,3.90
2023-01-13T07:29:42.082Z,3.90
2023-01-13T07:32:10.724Z,4.07
2023-01-13T07:34:39.159Z,4.63
2023-01-13T07:37:07.889Z,4.33
2023-01-13T07:39:38.084Z,4.77
2023-01-13T07:42:24.299Z,3.67
2023-01-13T07:44:52.754Z,3.73
2023-01-13T07:47:23.259Z,3.73
2023-01-13T07:49:51.604Z,3.93
2023-01-13T07:52:20.362Z,3.90
2023-01-13T07:54:50.584Z,4.60
2023-01-13T07:57:19.450Z,4.67
2023-01-13T07:59:47.841Z,3.90
2023-01-13T08:02:16.840Z,4.83
2023-01-13T08:04:45.613Z,4.57
2023-01-13T08:07:14.264Z,4.23
2023-01-13T08:09:42.748Z,4.60
2023-01-13T08:12:30.392Z,5.17
2023-01-13T08:14:58.766Z,4.70
2023-01-13T08:17:27.671Z,4.83
2023-01-13T08:19:56.013Z,3.97
2023-01-13T08:22:24.720Z,4.27
2023-01-13T08:24:53.181Z,4.43
2023-01-13T08:27:23.225Z,3.90
2023-01-13T08:29:51.779Z,3.70
2023-01-13T08:32:20.485Z,4.87
2023-01-13T08:34:48.853Z,5.07
2023-01-13T08:37:17.595Z,4.77
2023-01-13T08:39:46.043Z,4.40
2023-01-13T08:42:14.816Z,5.53
2023-01-13T08:44:44.704Z,4.73
2023-01-13T08:47:13.423Z,4.53
2023-01-13T08:49:42.012Z,4.43
2023-01-13T08:52:10.854Z,4.07
2023-01-13T08:54:39.975Z,4.33
2023-01-13T08:57:08.868Z,5.00
2023-01-13T08:59:37.421Z,4.47
2023-01-13T09:02:15.097Z,4.60
2023-01-13T09:04:44.178Z,4.93
2023-01-13T09:07:13.049Z,5.30
2023-01-13T09:09:41.450Z,5.20
2023-01-13T09:12:29.836Z,5.07
2023-01-13T09:14:58.640Z,4.73
2023-01-13T09:17:28.929Z,5.47
2023-01-13T09:19:57.389Z,4.40
2023-01-13T09:22:27.086Z,4.20
2023-01-13T09:24:56.588Z,4.93
2023-01-13T09:27:25.544Z,3.30
2023-01-13T09:29:53.955Z,4.07
2023-01-13T09:32:22.774Z,3.83
2023-01-13T09:35:09.441Z,3.27
2023-01-13T09:37:40.430Z,7.97
2023-01-13T09:40:16.606Z,3.70
2023-01-13T09:43:05.557Z,3.87
2023-01-13T09:45:40.149Z,3.40
2023-01-13T09:48:14.721Z,4.27
2023-01-13T09:50:55.641Z,4.07
2023-01-13T09:53:29.616Z,4.00
2023-01-13T09:55:58.192Z,4.57
2023-01-13T09:58:27.122Z,3.60
2023-01-13T10:01:07.713Z,4.03
2023-01-13T10:03:37.336Z,3.83
2023-01-13T10:06:14.764Z,4.57
2023-01-13T10:08:45.538Z,4.17
2023-01-13T10:11:49.144Z,4.17
2023-01-13T10:14:20.780Z,5.37
2023-01-13T10:17:06.135Z,4.10
2023-01-13T10:19:42.413Z,5.93
2023-01-13T10:22:43.951Z,4.87
2023-01-13T10:25:22.182Z,5.97
2023-01-13T10:27:53.693Z,5.60
2023-01-13T10:30:27.480Z,4.63
2023-01-13T10:32:58.512Z,4.73
2023-01-13T10:35:53.967Z,5.47
2023-01-13T10:38:25.974Z,5.50
2023-01-13T10:40:57.171Z,5.00
2023-01-13T10:43:26.179Z,4.40
2023-01-13T10:46:01.205Z,5.37
2023-01-13T10:48:39.058Z,4.37
2023-01-13T10:51:22.641Z,4.40
2023-01-13T10:54:03.632Z,4.27
2023-01-13T10:56:35.015Z,5.47
2023-01-13T10:59:18.548Z,5.03
2023-01-13T11:02:00.900Z,5.53
2023-01-13T11:04:32.900Z,4.60
2023-01-13T11:07:02.209Z,5.40
2023-01-13T11:09:34.073Z,4.53
2023-01-13T11:12:03.314Z,4.40
2023-01-13T11:14:39.531Z,4.10
2023-01-13T11:17:27.538Z,3.30
2023-01-13T11:20:04.489Z,3.97
2023-01-13T11:22:39.142Z,3.40
2023-01-13T11:25:15.433Z,3.40
2023-01-13T11:27:49.166Z,3.80
2023-01-13T11:30:29.747Z,3.20
2023-01-13T11:33:08.892Z,3.33
2023-01-13T11:35:42.646Z,3.43
2023-01-13T11:38:15.990Z,2.90
2023-01-13T11:40:49.720Z,3.60
2023-01-13T11:43:30.448Z,3.37
2023-01-13T11:46:01.232Z,3.03
2023-01-13T11:48:32.856Z,3.10
2023-01-13T11:51:05.900Z,3.33
2023-01-13T11:53:48.984Z,2.90
2023-01-13T11:56:35.652Z,3.53
2023-01-13T11:59:20.475Z,3.77
2023-01-13T12:02:03.417Z,3.40
2023-01-13T12:04:42.278Z,3.70
2023-01-13T12:07:18.457Z,3.80
2023-01-13T12:10:03.198Z,3.80
2023-01-13T12:12:49.190Z,4.40
2023-01-13T12:15:40.642Z,4.43
2023-01-13T12:18:37.651Z,3.77
2023-01-13T12:21:21.067Z,5.10
2023-01-13T12:24:00.690Z,4.77
2023-01-13T12:26:34.083Z,5.37
2023-01-13T12:29:06.956Z,4.60
2023-01-13T12:31:38.403Z,4.77
2023-01-13T12:34:22.801Z,5.20
2023-01-13T12:36:59.304Z,4.27
2023-01-13T12:39:37.591Z,4.87
2023-01-13T12:42:30.602Z,4.27
2023-01-13T12:45:25.329Z,3.80
2023-01-13T12:47:55.143Z,4.73
2023-01-13T12:50:44.134Z,4.70
2023-01-13T12:53:38.630Z,5.43
2023-01-13T12:56:44.503Z,4.53
2023-01-13T12:59:48.775Z,4.67
2023-01-13T13:02:43.535Z,4.17
2023-01-13T13:05:42.340Z,3.90
2023-01-13T13:08:23.104Z,4.17
2023-01-13T13:11:36.077Z,3.10
2023-01-13T13:14:05.923Z,3.80
2023-01-13T13:17:01.182Z,3.40
2023-01-13T13:19:48.904Z,3.70
2023-01-13T13:22:23.191Z,3.67
2023-01-13T13:25:36.104Z,3.47
2023-01-13T13:28:25.601Z,4.43
2023-01-13T13:31:09.851Z,3.93
2023-01-13T13:33:51.811Z,4.10
2023-01-13T13:36:39.887Z,4.20
2023-01-13T13:39:40.006Z,4.57
2023-01-13T13:42:32.322Z,3.57
2023-01-13T13:45:21.701Z,3.37
2023-01-13T13:47:51.568Z,3.97
2023-01-13T13:50:22.290Z,3.53
2023-01-13T13:52:56.760Z,3.10
2023-01-13T13:55:27.332Z,3.57
2023-01-13T13:57:58.443Z,3.90
2023-01-13T14:00:30.335Z,5.00
2023-01-13T14:03:01.177Z,4.73
2023-01-13T14:05:32.175Z,4.80
2023-01-13T14:08:03.954Z,5.97
2023-01-13T14:10:35.538Z,5.33
2023-01-13T14:13:15.691Z,4.23
2023-01-13T14:15:45.654Z,4.87
2023-01-13T14:18:16.944Z,5.03
2023-01-13T14:20:54.093Z,5.43
2023-01-13T14:23:27.688Z,4.57
2023-01-13T14:25:57.006Z,6.13
2023-01-13T14:28:29.637Z,5.27
2023-01-13T14:30:59.049Z,4.40
2023-01-13T14:33:35.368Z,5.13
2023-01-13T14:36:22.518Z,6.20
2023-01-13T14:39:25.469Z,4.97
2023-01-13T14:41:55.700Z,4.03
2023-01-13T14:44:28.128Z,5.03
2023-01-13T14:46:59.073Z,4.20
2023-01-13T14:49:33.093Z,4.40
2023-01-13T14:52:08.276Z,4.00
2023-01-13T14:54:49.083Z,4.13
2023-01-13T14:57:27.852Z,3.63
2023-01-13T15:00:00.414Z,4.80
2023-01-13T15:02:42.221Z,4.53
2023-01-13T15:05:34.809Z,4.90
2023-01-13T15:08:09.166Z,4.87
2023-01-13T15:10:45.845Z,4.17
2023-01-13T15:13:26.300Z,4.73
2023-01-13T15:15:56.997Z,4.63
2023-01-13T15:18:26.117Z,4.20
2023-01-13T15:20:54.567Z,3.53
2023-01-13T15:23:23.475Z,3.93
2023-01-13T15:25:52.158Z,4.50
2023-01-13T15:28:24.423Z,4.53
2023-01-13T15:30:54.425Z,4.67
2023-01-13T15:33:24.323Z,5.23
2023-01-13T15:35:54.430Z,5.50
2023-01-13T15:38:25.000Z,4.87
2023-01-13T15:40:54.562Z,5.70
2023-01-13T15:43:42.848Z,5.60
2023-01-13T15:46:32.040Z,5.27
2023-01-13T15:49:08.738Z,5.20
2023-01-13T15:51:38.841Z,5.90
2023-01-13T15:54:07.994Z,6.60
2023-01-13T15:56:38.119Z,5.37
2023-01-13T15:59:16.971Z,5.07
2023-01-13T16:01:46.575Z,5.27
2023-01-13T16:04:15.270Z,5.50
2023-01-13T16:06:43.872Z,6.10
2023-01-13T16:09:14.707Z,5.87
2023-01-13T16:11:43.567Z,5.10
2023-01-13T16:14:13.767Z,6.63
2023-01-13T16:16:42.422Z,5.00
2023-01-13T16:19:13.105Z,5.40
2023-01-13T16:21:41.676Z,5.87
2023-01-13T16:24:10.625Z,5.57
2023-01-13T16:26:39.073Z,6.07
2023-01-13T16:29:08.080Z,6.13
2023-01-13T16:31:38.174Z,5.50
2023-01-13T16:34:07.449Z,6.87
2023-01-13T16:36:37.149Z,6.37
2023-01-13T16:39:19.137Z,5.90
2023-01-13T16:41:47.565Z,5.33
2023-01-13T16:44:16.243Z,6.23
2023-01-13T16:46:47.561Z,6.37
2023-01-13T16:49:18.382Z,6.10
2023-01-13T16:51:47.049Z,5.73
2023-01-13T16:54:15.773Z,5.70
2023-01-13T16:56:44.444Z,4.83
2023-01-13T16:59:14.937Z,5.03
2023-01-13T17:01:45.859Z,4.67
2023-01-13T17:04:17.434Z,5.00
2023-01-13T17:06:51.072Z,5.97
2023-01-13T17:09:21.682Z,5.57
2023-01-13T17:11:50.354Z,5.87
2023-01-13T17:14:21.947Z,5.83
2023-01-13T17:16:53.279Z,5.87
2023-01-13T17:19:24.613Z,4.93
2023-01-13T17:21:53.306Z,5.23
2023-01-13T17:24:24.741Z,6.20
2023-01-13T17:26:53.534Z,6.87
2023-01-13T17:29:25.849Z,6.00
2023-01-13T17:31:55.959Z,6.33
2023-01-13T17:34:24.724Z,5.13
2023-01-13T17:36:53.315Z,5.33
2023-01-13T17:39:23.574Z,5.57
2023-01-13T17:41:53.466Z,4.13
2023-01-13T17:44:23.039Z,4.93
2023-01-13T17:46:51.498Z,4.60
2023-01-13T17:49:22.130Z,4.57
2023-01-13T17:51:51.480Z,4.47
2023-01-13T17:54:20.877Z,4.10
2023-01-13T17:56:49.448Z,4.20
2023-01-13T17:59:20.037Z,4.53
2023-01-13T18:01:48.638Z,4.80
2023-01-13T18:04:18.643Z,4.90
2023-01-13T18:06:49.572Z,4.70
2023-01-13T18:09:19.017Z,3.97
2023-01-13T18:11:47.698Z,4.67
2023-01-13T18:14:17.362Z,5.07
2023-01-13T18:16:46.140Z,4.73
2023-01-13T18:19:32.299Z,4.20
2023-01-13T18:22:19.540Z,4.87
2023-01-13T18:25:05.736Z,4.37
2023-01-13T18:27:38.663Z,4.83
2023-01-13T18:30:08.592Z,3.80
2023-01-13T18:32:37.357Z,4.20
2023-01-13T18:35:10.240Z,4.70
2023-01-13T18:37:42.954Z,3.80
2023-01-13T18:40:13.401Z,3.63
2023-01-13T18:42:54.823Z,3.40
2023-01-13T18:45:25.279Z,3.90
2023-01-13T18:47:55.208Z,4.47
2023-01-13T18:50:24.615Z,3.50
2023-01-13T18:52:54.466Z,4.40
2023-01-13T18:55:23.864Z,4.73
2023-01-13T18:57:53.437Z,4.13
2023-01-13T19:00:24.627Z,4.33
2023-01-13T19:05:38.200Z,4.87
2023-01-13T19:08:08.261Z,3.70
2023-01-13T19:10:37.590Z,4.70
2023-01-13T19:13:06.348Z,4.27
2023-01-13T19:15:37.841Z,4.57
2023-01-13T19:18:06.589Z,4.23
2023-01-13T19:20:36.016Z,4.63
2023-01-13T19:23:04.584Z,4.40
2023-01-13T19:25:35.980Z,3.47
2023-01-13T19:28:04.778Z,3.73
2023-01-13T19:30:33.854Z,3.47
2023-01-13T19:33:02.422Z,3.73
2023-01-13T19:35:31.217Z,3.20
2023-01-13T19:37:59.785Z,3.87
2023-01-13T19:40:28.775Z,4.50
2023-01-13T19:43:16.564Z,3.90
2023-01-13T19:45:45.590Z,3.90
2023-01-13T19:48:16.233Z,4.53
2023-01-13T19:50:45.047Z,4.80
2023-01-13T19:53:18.313Z,4.97
2023-01-13T19:55:49.258Z,5.43
2023-01-13T19:58:20.084Z,3.80
2023-01-13T20:00:48.822Z,4.13
2023-01-13T20:03:19.206Z,3.93
2023-01-13T20:05:48.791Z,5.33
2023-01-13T20:08:17.712Z,4.73
2023-01-13T20:10:47.201Z,4.43
2023-01-13T20:13:16.386Z,3.73
2023-01-13T20:15:46.499Z,4.63
2023-01-13T20:18:15.341Z,4.47
2023-01-13T20:20:44.981Z,3.80
2023-01-13T20:23:13.629Z,4.73
2023-01-13T20:25:43.736Z,4.43
2023-01-13T20:28:12.399Z,4.20
2023-01-13T20:30:41.740Z,5.47
2023-01-13T20:33:12.090Z,4.67
2023-01-13T20:35:40.943Z,4.00
2023-01-13T20:38:09.952Z,4.17
2023-01-13T20:40:39.242Z,3.77
2023-01-13T20:43:07.087Z,4.07
2023-01-13T20:45:36.505Z,4.53
2023-01-13T20:48:05.338Z,4.43
2023-01-13T20:50:35.650Z,4.77
2023-01-13T20:53:04.437Z,4.77
2023-01-13T20:55:33.500Z,3.93
2023-01-13T20:58:02.035Z,4.97
2023-01-13T21:00:30.882Z,4.90
2023-01-13T21:02:59.933Z,5.90
2023-01-13T21:05:29.597Z,4.83
2023-01-13T21:07:59.717Z,4.53
2023-01-13T21:10:28.687Z,4.90
2023-01-13T21:13:15.344Z,5.53
2023-01-13T21:15:48.827Z,5.53
2023-01-13T21:18:35.255Z,4.57
2023-01-13T21:21:12.427Z,6.20
2023-01-13T21:23:43.802Z,5.23
2023-01-13T21:26:13.221Z,5.00
2023-01-13T21:28:41.969Z,4.50
2023-01-13T21:31:11.210Z,4.73
2023-01-13T21:33:39.941Z,4.07
2023-01-13T21:36:10.333Z,4.40
2023-01-13T21:38:38.949Z,4.77
2023-01-13T21:41:12.976Z,5.13
2023-01-13T21:43:59.040Z,5.23
2023-01-13T21:46:45.119Z,5.87
2023-01-13T21:49:13.657Z,5.43
2023-01-13T21:51:44.884Z,5.20
2023-01-13T21:54:13.477Z,5.83
2023-01-13T21:56:43.678Z,5.30
2023-01-13T21:59:12.162Z,5.60
2023-01-13T22:02:12.381Z,4.23
2023-01-13T22:04:29.237Z,4.60
2023-01-13T22:06:59.823Z,4.10
2023-01-13T22:09:28.173Z,3.97
2023-01-13T22:12:00.476Z,5.03
2023-01-13T22:14:29.060Z,4.20
2023-01-13T22:17:00.745Z,5.03
2023-01-13T22:19:30.406Z,5.53
2023-01-13T22:21:59.115Z,4.73
2023-01-13T22:24:30.143Z,4.47
2023-01-13T22:27:00.404Z,5.07
2023-01-13T22:29:29.421Z,5.10
2023-01-13T22:31:58.635Z,4.60
2023-01-13T22:34:27.408Z,5.50
2023-01-13T22:36:56.329Z,4.67
2023-01-13T22:39:24.760Z,4.10
2023-01-13T22:41:53.750Z,4.73
2023-01-13T22:44:24.561Z,4.63
2023-01-13T22:46:53.473Z,3.87
2023-01-13T22:49:22.992Z,4.20
2023-01-13T22:51:51.805Z,4.00
2023-01-13T22:54:20.399Z,3.67
2023-01-13T22:56:49.167Z,3.50
2023-01-13T22:59:17.742Z,3.97
2023-01-13T23:01:47.788Z,3.40
2023-01-13T23:04:16.323Z,4.13
2023-01-13T23:06:45.084Z,3.27
2023-01-13T23:09:13.780Z,9.17
2023-01-13T23:11:42.575Z,4.47
2023-01-13T23:14:13.314Z,3.53
2023-01-13T23:16:42.674Z,3.10
2023-01-13T23:19:15.502Z,3.57
2023-01-13T23:21:44.278Z,3.93
2023-01-13T23:24:12.955Z,4.07
2023-01-13T23:26:41.942Z,4.60
2023-01-13T23:29:13.240Z,4.17
2023-01-13T23:31:43.156Z,3.60
2023-01-13T23:34:13.265Z,4.63
2023-01-13T23:36:43.343Z,4.27
2023-01-13T23:39:11.987Z,4.10
2023-01-13T23:41:40.780Z,5.10
2023-01-13T23:44:10.019Z,3.90
2023-01-13T23:46:38.903Z,3.67
2023-01-13T23:49:07.400Z,3.13
2023-01-13T23:51:37.392Z,3.67
2023-01-13T23:54:06.106Z,3.77
2023-01-13T23:56:39.231Z,3.27
2023-01-13T23:59:08.298Z,3.43
